This is the latest recevied weather packets stored in our database for station/object N3FU-13. If no packets are shown the sender has not sent any weather packets the latest 10 day(s).
| Time | Temp. | Humidity | Pressure | Rain* | Wind** | Luminosity | Snow |
|---|---|---|---|---|---|---|---|
| 1777695132 | 22.78° C | 92% | 1011.6 hPa | 0 mm | - | - | - |
| 1777694232 | 22.78° C | 91% | 1011.5 hPa | 0 mm | - | - | - |
| 1777693332 | 23.33° C | 91% | 1011.5 hPa | 0 mm | - | - | - |
| 1777692432 | 23.33° C | 91% | 1011.6 hPa | 0 mm | - | - | - |
| 1777691572 | 23.89° C | 90% | 1011.5 hPa | 0 mm | - | - | - |
| 1777691532 | 23.33° C | 90% | 1011.5 hPa | 0 mm | - | - | - |
| 1777690793 | 23.89° C | 90% | 1011.5 hPa | 0 mm | - | - | - |
| 1777690632 | 23.89° C | 90% | 1011.5 hPa | 0 mm | - | - | - |
| 1777689732 | 23.89° C | 90% | 1011.5 hPa | 0 mm | - | - | - |
| 1777688721 | 24.44° C | 89% | 1011.6 hPa | 0 mm | - | - | - |
| 1777673533 | 28.89° C | 74% | 1010 hPa | 0 mm | - | - | - |
| 1777672633 | 29.44° C | 73% | 1009.9 hPa | 0 mm | - | - | - |
| 1777671733 | 30° C | 72% | 1010 hPa | 0 mm | - | - | - |
| 1777670833 | 30° C | 72% | 1009.9 hPa | 0 mm | - | - | - |
| 1777669033 | 30.56° C | 73% | 1010.2 hPa | 0 mm | - | - | - |
| 1777668133 | 30° C | 72% | 1010.1 hPa | 0 mm | - | - | - |
| 1777667233 | 30.56° C | 69% | 1010.3 hPa | 0 mm | - | - | - |
| 1777665433 | 31.67° C | 64% | 1010.6 hPa | 0 mm | - | - | - |
| 1777663633 | 31.67° C | 65% | 1011.3 hPa | 0 mm | - | - | - |
| 1777662733 | 32.22° C | 64% | 1011.7 hPa | 0 mm | - | - | - |
| 1777661833 | 32.22° C | 62% | 1012.1 hPa | 0 mm | - | - | - |
| 1777660314 | 32.22° C | 62% | 1012.4 hPa | 0 mm | - | - | - |
| 1777660033 | 32.22° C | 62% | 1012.4 hPa | 0 mm | - | - | - |
| 1777659133 | 32.22° C | 63% | 1012.3 hPa | 0 mm | - | - | - |
| 1777657333 | 31.67° C | 64% | 1012.5 hPa | 0 mm | - | - | - |
* Rain latest hour (hover to see other rain measurements)
** Current wind speed in m/s (hover to see current wind gust speed)